Time;durP1;ratioP1;P1;durP2;ratioP2;P2;SDS_P1;SDS_P2;PMS_P1;PMS_P2;Temp;Humidity;BMP_temperature;BMP_pressure;BME280_temperature;BME280_humidity;BME280_pressure;Samples;Min_cycle;Max_cycle;Signal;HPM_P1;HPM_P2
2021/07/11 00:00:52;;;;;;;7.83;6.43;;;;;;;24.46;100.00;100184.33;1771245;80;21523;-67
2021/07/11 00:03:19;;;;;;;11.10;6.87;;;;;;;24.45;100.00;100181.41;1764623;80;21057;-67
2021/07/11 00:05:45;;;;;;;10.67;7.20;;;;;;;24.27;100.00;100184.16;1762553;80;21046;-61
2021/07/11 00:08:11;;;;;;;9.67;7.47;;;;;;;24.22;100.00;100182.07;1761804;80;22214;-67
2021/07/11 00:10:40;;;;;;;10.70;7.33;;;;;;;24.46;100.00;100179.00;1764339;80;21528;-66
2021/07/11 00:13:06;;;;;;;9.97;6.80;;;;;;;24.38;100.00;100183.56;1762140;80;21465;-61
2021/07/11 00:15:33;;;;;;;8.83;6.93;;;;;;;24.32;100.00;100181.20;1760475;80;22032;-66
2021/07/11 00:18:02;;;;;;;8.97;7.03;;;;;;;24.31;100.00;100185.73;1764411;80;21472;-68
2021/07/11 00:20:29;;;;;;;11.13;6.63;;;;;;;24.31;100.00;100178.28;1762356;80;21416;-68
2021/07/11 00:22:56;;;;;;;8.33;7.00;;;;;;;24.30;100.00;100182.02;1765058;80;21531;-68
2021/07/11 00:25:23;;;;;;;9.27;7.40;;;;;;;24.24;100.00;100177.25;1760669;80;20978;-64
2021/07/11 00:27:50;;;;;;;10.10;6.57;;;;;;;24.22;100.00;100171.42;1762670;80;21087;-66
2021/07/11 00:30:19;;;;;;;8.80;6.93;;;;;;;24.14;100.00;100169.34;1761990;80;21405;-69
2021/07/11 00:32:46;;;;;;;8.23;6.33;;;;;;;24.15;100.00;100177.58;1763367;80;21908;-69
2021/07/11 00:35:13;;;;;;;9.57;6.47;;;;;;;23.87;100.00;100176.40;1763534;80;20919;-68
2021/07/11 00:37:40;;;;;;;9.50;7.30;;;;;;;23.96;100.00;100176.08;1762525;80;21060;-62
2021/07/11 00:40:09;;;;;;;9.77;7.40;;;;;;;23.88;100.00;100184.64;1760248;80;21053;-68
2021/07/11 00:42:38;;;;;;;8.77;6.80;;;;;;;23.70;100.00;100179.37;1757092;80;20947;-62
2021/07/11 00:45:09;;;;;;;13.80;7.37;;;;;;;23.99;100.00;100176.33;1765776;80;21071;-67
2021/07/11 00:47:38;;;;;;;10.72;6.83;;;;;;;23.98;100.00;100178.73;1761784;80;20931;-64
2021/07/11 00:50:11;;;;;;;10.67;6.90;;;;;;;23.87;100.00;100173.73;1769018;80;20961;-67
2021/07/11 00:52:39;;;;;;;10.40;7.43;;;;;;;23.91;100.00;100172.91;1723373;81;20952;-60
2021/07/11 00:55:09;;;;;;;12.63;7.87;;;;;;;23.81;100.00;100176.94;1737292;81;21114;-67
2021/07/11 00:57:36;;;;;;;11.13;7.87;;;;;;;23.78;100.00;100177.48;1757826;80;21161;-62
2021/07/11 01:00:08;;;;;;;10.57;8.07;;;;;;;23.86;100.00;100178.78;1766942;80;21069;-69
2021/07/11 01:03:00;;;;;;;10.30;7.70;;;;;;;23.95;100.00;100171.30;1737297;81;21090;-67
2021/07/11 01:05:28;;;;;;;9.25;7.30;;;;;;;23.96;100.00;100168.88;1765167;80;21102;-68
2021/07/11 01:08:08;;;;;;;9.80;7.30;;;;;;;24.03;100.00;100172.05;1762916;80;20903;-67
2021/07/11 01:10:47;;;;;;;10.50;7.47;;;;;;;23.85;100.00;100175.86;1719291;82;21166;-67
2021/07/11 01:13:19;;;;;;;9.65;8.30;;;;;;;23.90;100.00;100169.97;1766232;80;21481;-68
2021/07/11 01:15:50;;;;;;;9.13;7.00;;;;;;;24.08;100.00;100170.42;1765759;79;21025;-61
2021/07/11 01:18:22;;;;;;;10.57;7.90;;;;;;;24.04;100.00;100166.97;1765761;80;21395;-69
2021/07/11 01:21:10;;;;;;;8.17;7.27;;;;;;;24.12;100.00;100174.92;1761426;80;21511;-63
2021/07/11 01:24:01;;;;;;;9.97;7.87;;;;;;;24.13;100.00;100171.20;1762904;80;22517;-71
2021/07/11 01:26:29;;;;;;;10.77;7.07;;;;;;;23.93;100.00;100177.95;1754651;80;21067;-69
2021/07/11 01:28:56;;;;;;;8.50;7.60;;;;;;;23.94;100.00;100171.55;1765480;80;21084;-68
2021/07/11 01:31:25;;;;;;;13.43;8.40;;;;;;;23.84;100.00;100176.94;1763861;80;21131;-70
2021/07/11 01:33:54;;;;;;;12.90;7.30;;;;;;;23.80;100.00;100174.02;1768660;80;21034;-70
2021/07/11 01:36:22;;;;;;;10.27;7.67;;;;;;;23.79;100.00;100177.77;1741317;80;22037;-69
2021/07/11 01:38:50;;;;;;;8.47;7.50;;;;;;;23.79;100.00;100171.90;1765253;80;22400;-69
2021/07/11 01:41:17;;;;;;;8.97;7.77;;;;;;;23.68;100.00;100177.53;1763605;80;20887;-68
2021/07/11 01:43:47;;;;;;;9.40;7.77;;;;;;;23.60;100.00;100176.71;1760479;80;20966;-67
2021/07/11 01:46:14;;;;;;;12.07;6.90;;;;;;;23.68;100.00;100172.22;1761510;80;21480;-67
2021/07/11 01:48:42;;;;;;;11.77;7.43;;;;;;;23.71;100.00;100172.98;1765218;80;22329;-68
2021/07/11 01:51:10;;;;;;;12.27;7.73;;;;;;;23.80;100.00;100174.02;1761915;80;21046;-69
2021/07/11 01:53:42;;;;;;;12.07;9.67;;;;;;;23.86;100.00;100174.25;1764068;80;21025;-69
2021/07/11 01:56:09;;;;;;;11.53;9.10;;;;;;;23.61;100.00;100177.00;1737314;81;21042;-65
2021/07/11 01:58:39;;;;;;;11.27;8.13;;;;;;;23.74;100.00;100178.55;1757427;80;21136;-68
2021/07/11 02:01:10;;;;;;;11.30;7.87;;;;;;;23.79;100.00;100175.10;1765644;80;21751;-68
2021/07/11 02:03:38;;;;;;;12.20;8.30;;;;;;;24.03;100.00;100176.04;1762945;80;21064;-63
2021/07/11 02:06:09;;;;;;;13.80;8.73;;;;;;;24.21;100.00;100177.83;1764176;80;21048;-66
2021/07/11 02:08:38;;;;;;;11.83;8.83;;;;;;;24.42;100.00;100182.50;1762782;80;21287;-69
2021/07/11 02:11:06;;;;;;;9.43;7.83;;;;;;;24.43;100.00;100191.54;1763545;80;21002;-68
2021/07/11 02:13:52;;;;;;;12.67;9.70;;;;;;;24.78;100.00;100183.59;1757428;80;20934;-69
2021/07/11 02:16:42;;;;;;;10.80;8.00;;;;;;;25.15;100.00;100187.00;1758450;80;21043;-68
2021/07/11 02:19:10;;;;;;;12.78;8.78;;;;;;;25.74;100.00;100187.18;1763317;80;20982;-63
2021/07/11 02:21:39;;;;;;;10.83;8.03;;;;;;;26.11;100.00;100187.80;1763611;80;21496;-66
2021/07/11 02:24:06;;;;;;;11.80;8.57;;;;;;;26.61;100.00;100187.38;1763992;80;20969;-62
2021/07/11 02:26:36;;;;;;;10.73;8.70;;;;;;;27.19;100.00;100183.48;1735004;81;22426;-65
2021/07/11 02:29:05;;;;;;;10.20;7.47;;;;;;;27.66;100.00;100180.99;1764068;80;20950;-66
2021/07/11 02:31:39;;;;;;;10.77;8.30;;;;;;;28.22;100.00;100179.80;1762664;80;21054;-66
2021/07/11 02:34:04;;;;;;;21.17;16.23;;;;;;;28.38;100.00;100178.17;1764358;80;21250;-66
2021/07/11 02:36:32;;;;;;;15.87;11.10;;;;;;;28.86;100.00;100178.31;1761586;80;21074;-65
2021/07/11 02:39:11;;;;;;;13.03;9.70;;;;;;;29.27;100.00;100178.07;1763302;80;21138;-65
2021/07/11 02:41:44;;;;;;;10.53;8.13;;;;;;;29.84;100.00;100180.55;1762487;79;21087;-62
2021/07/11 02:44:12;;;;;;;9.43;7.97;;;;;;;30.32;100.00;100181.81;1763233;80;21028;-65
2021/07/11 02:46:45;;;;;;;8.87;7.57;;;;;;;30.71;100.00;100179.45;1756980;80;21566;-65
2021/07/11 02:49:14;;;;;;;9.68;7.83;;;;;;;31.02;100.00;100181.14;1761488;80;21530;-65
2021/07/11 02:51:53;;;;;;;9.53;7.83;;;;;;;31.55;100.00;100175.78;1766177;80;21048;-65
2021/07/11 02:54:23;;;;;;;8.63;7.55;;;;;;;31.77;99.35;100166.63;1757045;80;20906;-66
2021/07/11 02:57:01;;;;;;;10.55;7.62;;;;;;;32.03;95.90;100170.52;1761851;80;21526;-63
2021/07/11 02:59:32;;;;;;;11.18;7.65;;;;;;;32.46;90.02;100172.86;1759061;80;21296;-67
2021/07/11 03:02:02;;;;;;;9.85;7.62;;;;;;;32.68;83.98;100171.69;1788871;77;21019;-66
2021/07/11 03:04:30;;;;;;;8.35;7.55;;;;;;;32.61;82.53;100176.06;1806411;78;21966;-63
2021/07/11 03:06:59;;;;;;;9.20;7.55;;;;;;;32.96;81.01;100174.36;1789805;78;20983;-62
2021/07/11 03:09:27;;;;;;;7.97;6.92;;;;;;;33.23;78.95;100175.64;1758945;79;21797;-67
2021/07/11 03:11:56;;;;;;;9.43;6.72;;;;;;;33.50;73.67;100172.28;1768146;79;37789;-68
2021/07/11 03:14:23;;;;;;;9.23;7.12;;;;;;;33.72;68.04;100169.67;1771336;79;20918;-62
2021/07/11 03:16:55;;;;;;;9.83;7.47;;;;;;;33.59;66.48;100174.85;1775773;79;22099;-68
2021/07/11 03:19:25;;;;;;;10.23;9.23;;;;;;;33.33;66.48;100173.25;1759563;79;21062;-66
2021/07/11 03:21:52;;;;;;;10.30;8.40;;;;;;;32.98;70.38;100171.56;1769114;79;21545;-66
2021/07/11 03:24:25;;;;;;;9.95;8.75;;;;;;;32.77;73.31;100180.25;1773037;79;21069;-61
2021/07/11 03:26:55;;;;;;;12.65;8.75;;;;;;;31.93;84.22;100184.38;1770108;79;21048;-66
2021/07/11 03:29:52;;;;;;;9.63;7.97;;;;;;;32.19;84.34;100184.97;1778557;79;21066;-65
2021/07/11 03:32:14;;;;;;;8.68;7.78;;;;;;;32.30;85.66;100183.23;1769999;79;20998;-61
2021/07/11 03:34:41;;;;;;;10.48;8.03;;;;;;;32.55;83.04;100180.89;1779039;78;21061;-67
2021/07/11 03:37:13;;;;;;;8.65;7.30;;;;;;;32.75;80.44;100184.65;1794110;78;21000;-66
2021/07/11 03:39:46;;;;;;;9.70;8.23;;;;;;;33.35;76.13;100182.39;1791050;78;20940;-66
2021/07/11 03:42:14;;;;;;;15.68;8.50;;;;;;;34.29;67.56;100181.36;1802845;78;21125;-61
2021/07/11 03:44:42;;;;;;;9.20;7.65;;;;;;;35.12;60.18;100178.88;1776535;78;21047;-66
2021/07/11 03:47:10;;;;;;;9.08;7.90;;;;;;;35.65;56.00;100179.35;1806561;78;21507;-66
2021/07/11 03:49:38;;;;;;;8.45;7.58;;;;;;;35.72;55.26;100178.16;1775786;78;21483;-66
2021/07/11 03:52:06;;;;;;;8.40;6.80;;;;;;;35.88;52.80;100177.55;1796795;78;21484;-66
2021/07/11 03:54:35;;;;;;;10.28;8.05;;;;;;;35.69;52.72;100180.24;1763884;80;22303;-66
2021/07/11 03:57:03;;;;;;;11.30;7.67;;;;;;;35.07;55.53;100175.87;1812976;78;21049;-66
2021/07/11 03:59:32;;;;;;;9.58;7.87;;;;;;;35.13;57.51;100169.64;1796076;78;20940;-67
2021/07/11 04:02:01;;;;;;;10.82;7.17;;;;;;;35.43;57.65;100174.80;1775332;79;21012;-67
2021/07/11 04:04:27;;;;;;;13.85;6.55;;;;;;;35.94;54.33;100167.97;1786785;78;21038;-61
2021/07/11 04:06:54;;;;;;;10.18;6.90;;;;;;;36.81;51.80;100161.69;1785689;79;21520;-67
2021/07/11 04:09:22;;;;;;;8.00;6.70;;;;;;;37.82;47.46;100161.28;1770463;79;21067;-68
2021/07/11 04:11:51;;;;;;;8.90;6.75;;;;;;;38.44;44.93;100160.27;1794216;79;21541;-66
2021/07/11 04:14:20;;;;;;;11.43;6.25;;;;;;;39.01;42.77;100161.36;1794911;79;21490;-62
2021/07/11 04:16:53;;;;;;;8.18;6.17;;;;;;;39.67;41.09;100158.09;1801802;79;21506;-67
2021/07/11 04:19:27;;;;;;;10.28;6.28;;;;;;;40.57;38.35;100154.48;1792696;79;21858;-67
2021/07/11 04:21:56;;;;;;;7.72;6.12;;;;;;;41.18;36.68;100157.24;1793615;79;21454;-61
2021/07/11 04:24:22;;;;;;;9.10;6.28;;;;;;;41.83;34.94;100155.13;1797694;78;21691;-67
2021/07/11 04:26:49;;;;;;;8.30;7.28;;;;;;;42.28;34.00;100149.78;1793586;78;21495;-68
2021/07/11 04:29:16;;;;;;;8.03;6.83;;;;;;;42.48;32.84;100153.57;1802593;79;21024;-67
2021/07/11 04:31:46;;;;;;;8.40;7.40;;;;;;;42.53;32.47;100155.09;1792423;79;21139;-62
2021/07/11 04:34:27;;;;;;;;;;;;;;;42.53;31.94;100153.73;1806898;79;22350;-68
2021/07/11 04:36:55;;;;;;;10.88;6.30;;;;;;;42.59;31.90;100156.23;1751591;80;20162;-68
2021/07/11 04:39:22;;;;;;;8.95;6.65;;;;;;;42.81;31.18;100156.87;1785081;80;21047;-68
2021/07/11 04:41:49;;;;;;;6.75;6.05;;;;;;;42.93;30.99;100156.95;1770136;80;21016;-68
2021/07/11 04:44:17;;;;;;;10.50;6.83;;;;;;;43.10;30.73;100157.38;1772480;80;21153;-68
2021/07/11 04:46:43;;;;;;;10.35;7.30;;;;;;;43.29;30.15;100153.86;1780429;80;20968;-69
2021/07/11 04:49:10;;;;;;;9.13;6.37;;;;;;;43.35;30.22;100161.24;1749899;80;21079;-65
2021/07/11 04:51:37;;;;;;;9.58;6.75;;;;;;;43.40;30.13;100160.01;1808131;79;20984;-67
2021/07/11 04:54:06;;;;;;;9.60;6.53;;;;;;;43.52;29.67;100161.47;1801506;78;20931;-67
2021/07/11 04:56:33;;;;;;;9.38;5.70;;;;;;;43.60;29.13;100156.84;1792757;79;21077;-68
2021/07/11 04:58:59;;;;;;;13.43;5.75;;;;;;;43.70;27.61;100158.69;1804488;78;21020;-66
2021/07/11 05:01:26;;;;;;;7.87;6.70;;;;;;;43.79;27.84;100161.52;1798807;78;21020;-65
2021/07/11 05:03:54;;;;;;;7.85;5.35;;;;;;;44.08;28.08;100155.85;1804083;78;21037;-67
2021/07/11 05:06:20;;;;;;;5.80;4.50;;;;;;;44.44;27.42;100156.73;1808958;78;21093;-65
2021/07/11 05:08:48;;;;;;;7.80;5.25;;;;;;;44.67;25.62;100158.73;1807302;78;21117;-64
2021/07/11 05:11:14;;;;;;;5.45;4.70;;;;;;;44.59;25.20;100163.55;1813339;78;20982;-66
2021/07/11 05:13:41;;;;;;;5.35;4.83;;;;;;;44.36;24.95;100158.02;1805705;78;20970;-66
2021/07/11 05:16:07;;;;;;;5.70;4.90;;;;;;;43.95;25.29;100165.86;1799947;78;21088;-66
2021/07/11 05:18:34;;;;;;;5.33;4.80;;;;;;;43.78;25.88;100160.75;1805136;78;21003;-66
2021/07/11 05:21:02;;;;;;;6.15;4.87;;;;;;;43.70;25.66;100161.43;1798102;78;20991;-66
2021/07/11 05:23:29;;;;;;;6.67;4.67;;;;;;;43.52;25.45;100160.88;1802390;78;20977;-61
2021/07/11 05:25:55;;;;;;;6.12;5.12;;;;;;;43.27;25.19;100160.37;1791182;78;21005;-66
2021/07/11 05:28:22;;;;;;;4.83;4.30;;;;;;;43.05;25.36;100163.89;1803267;78;21505;-65
2021/07/11 05:30:50;;;;;;;5.75;5.10;;;;;;;42.82;25.93;100166.64;1795923;78;20918;-61
2021/07/11 05:33:16;;;;;;;5.20;4.50;;;;;;;42.46;26.64;100160.62;1802127;78;21564;-65
2021/07/11 05:35:43;;;;;;;6.83;5.08;;;;;;;42.13;26.56;100161.42;1800191;78;20987;-66
2021/07/11 05:38:10;;;;;;;4.92;4.10;;;;;;;41.96;27.37;100166.39;1800730;78;21044;-66
2021/07/11 05:40:37;;;;;;;5.40;4.53;;;;;;;41.83;27.13;100163.34;1809723;78;21042;-66
2021/07/11 05:43:03;;;;;;;7.10;5.05;;;;;;;41.59;27.69;100164.95;1800935;78;20920;-61
2021/07/11 05:45:31;;;;;;;5.95;4.92;;;;;;;41.74;28.14;100158.24;1794667;78;21010;-65
2021/07/11 05:47:58;;;;;;;7.47;4.75;;;;;;;42.04;28.60;100154.22;1801484;78;21560;-66
2021/07/11 05:50:24;;;;;;;6.95;4.90;;;;;;;42.35;27.78;100159.92;1801786;78;21093;-67
2021/07/11 05:52:51;;;;;;;6.70;5.20;;;;;;;42.20;26.96;100159.98;1791716;78;21088;-67
2021/07/11 05:55:19;;;;;;;5.37;4.55;;;;;;;41.89;26.87;100155.47;1800177;78;20967;-62
2021/07/11 05:57:45;;;;;;;5.17;4.50;;;;;;;41.97;27.45;100159.73;1800153;78;22299;-67
2021/07/11 06:00:13;;;;;;;4.95;4.35;;;;;;;41.95;27.60;100160.14;1799892;78;21574;-65
2021/07/11 06:02:40;;;;;;;5.95;4.25;;;;;;;42.32;26.09;100152.50;1793422;78;21108;-65
2021/07/11 06:05:07;;;;;;;4.85;4.17;;;;;;;42.19;25.57;100149.44;1759164;80;20943;-66
2021/07/11 06:07:34;;;;;;;5.30;4.28;;;;;;;42.17;25.67;100152.59;1799198;79;21489;-61
2021/07/11 06:10:01;;;;;;;6.10;4.47;;;;;;;41.89;25.58;100156.84;1786286;78;22140;-66
2021/07/11 06:12:27;;;;;;;6.17;4.45;;;;;;;41.91;25.99;100155.87;1782157;79;21058;-66
2021/07/11 06:14:55;;;;;;;5.95;4.42;;;;;;;41.99;26.42;100152.69;1788629;79;21008;-65
2021/07/11 06:17:24;;;;;;;7.95;4.00;;;;;;;42.16;25.89;100156.48;1790001;79;21017;-61
2021/07/11 06:19:51;;;;;;;5.70;4.33;;;;;;;42.33;25.57;100159.56;1802365;79;21165;-64
2021/07/11 06:22:17;;;;;;;5.35;4.35;;;;;;;42.09;26.28;100151.08;1801290;79;21263;-64
2021/07/11 06:24:45;;;;;;;5.95;4.70;;;;;;;42.14;25.61;100149.88;1790026;78;20948;-66
2021/07/11 06:27:12;;;;;;;4.95;4.45;;;;;;;42.35;26.32;100147.59;1765886;80;20982;-66
2021/07/11 06:29:38;;;;;;;6.00;4.15;;;;;;;42.37;26.09;100150.72;1793626;79;21000;-65
2021/07/11 06:32:06;;;;;;;5.78;4.05;;;;;;;42.28;26.15;100149.78;1793270;79;21094;-65
2021/07/11 06:34:33;;;;;;;5.47;4.85;;;;;;;42.53;25.89;100140.02;1794585;79;21984;-64
2021/07/11 06:36:59;;;;;;;5.10;4.60;;;;;;;42.45;25.03;100142.64;1791219;79;20964;-65
2021/07/11 06:39:25;;;;;;;6.20;4.83;;;;;;;42.27;25.59;100140.02;1790057;79;21057;-65
2021/07/11 06:41:52;;;;;;;5.80;4.30;;;;;;;42.16;25.70;100134.58;1794358;79;21434;-64
2021/07/11 06:44:19;;;;;;;5.15;4.62;;;;;;;42.23;25.77;100130.42;1780800;79;21063;-66
2021/07/11 06:46:45;;;;;;;7.60;4.70;;;;;;;42.31;25.75;100135.29;1791282;79;21151;-67
2021/07/11 06:49:12;;;;;;;4.83;4.42;;;;;;;42.12;26.00;100129.71;1748825;80;21051;-62
2021/07/11 06:51:38;;;;;;;5.78;4.15;;;;;;;42.07;26.06;100127.41;1764547;80;20997;-61
2021/07/11 06:54:05;;;;;;;5.17;4.67;;;;;;;41.89;26.41;100126.73;1776404;80;21604;-68
2021/07/11 06:56:31;;;;;;;4.90;4.35;;;;;;;41.94;26.45;100127.67;1802907;79;21039;-66
2021/07/11 06:58:58;;;;;;;7.45;4.35;;;;;;;41.83;26.74;100123.64;1804116;79;22250;-67
2021/07/11 07:01:25;;;;;;;5.75;4.80;;;;;;;41.85;26.91;100124.59;1798259;78;21070;-61
2021/07/11 07:03:51;;;;;;;5.70;3.98;;;;;;;41.92;26.78;100130.04;1793883;79;22455;-62
2021/07/11 07:06:18;;;;;;;5.83;4.28;;;;;;;42.05;27.04;100125.64;1793824;79;21008;-65
2021/07/11 07:08:45;;;;;;;4.78;4.28;;;;;;;42.06;26.16;100123.71;1793081;79;20997;-65
2021/07/11 07:11:12;;;;;;;4.90;4.05;;;;;;;41.99;25.76;100120.42;1792687;79;21183;-65
2021/07/11 07:13:39;;;;;;;6.25;4.50;;;;;;;41.89;27.46;100121.25;1798921;79;21508;-63
2021/07/11 07:16:06;;;;;;;4.95;4.22;;;;;;;41.97;26.67;100120.80;1786174;78;21116;-65
2021/07/11 07:18:34;;;;;;;5.22;4.37;;;;;;;42.07;26.96;100123.30;1805845;79;21022;-65
2021/07/11 07:21:01;;;;;;;6.42;4.60;;;;;;;42.17;27.23;100123.83;1801577;79;21564;-65
2021/07/11 07:23:28;;;;;;;5.37;4.33;;;;;;;42.43;26.17;100125.80;1793241;79;21204;-66
2021/07/11 07:25:55;;;;;;;8.13;4.90;;;;;;;42.62;26.10;100125.28;1792560;79;20934;-69
2021/07/11 07:28:21;;;;;;;7.25;4.80;;;;;;;42.56;25.42;100115.92;1794286;79;21177;-66
2021/07/11 07:30:49;;;;;;;6.95;4.60;;;;;;;42.46;26.51;100116.78;1801349;79;20923;-65
2021/07/11 07:33:15;;;;;;;5.08;4.25;;;;;;;42.38;24.85;100122.91;1789857;79;21129;-65
2021/07/11 07:35:42;;;;;;;6.20;4.35;;;;;;;42.01;25.39;100120.19;1789827;79;21170;-65
2021/07/11 07:38:08;;;;;;;5.17;4.35;;;;;;;41.92;25.65;100123.97;1789734;79;22168;-65
2021/07/11 07:40:35;;;;;;;4.47;3.95;;;;;;;41.78;24.44;100124.78;1787866;79;20982;-66
2021/07/11 07:43:01;;;;;;;7.35;4.15;;;;;;;42.03;24.79;100115.11;1798295;79;21019;-65
2021/07/11 07:45:28;;;;;;;6.33;4.00;;;;;;;42.44;24.49;100122.68;1789394;78;21003;-66
2021/07/11 07:47:55;;;;;;;6.65;5.05;;;;;;;42.44;24.17;100115.83;1794444;79;21124;-61
2021/07/11 07:50:21;;;;;;;5.92;4.30;;;;;;;42.85;24.40;100123.91;1793148;79;21125;-66
2021/07/11 07:52:48;;;;;;;8.48;5.05;;;;;;;43.32;24.15;100122.87;1794776;79;21054;-68
2021/07/11 07:55:14;;;;;;;6.90;4.30;;;;;;;43.35;24.52;100127.55;1793970;79;20936;-67
2021/07/11 07:57:43;;;;;;;5.50;4.20;;;;;;;43.29;23.59;100122.31;1789870;78;20983;-67
2021/07/11 08:00:11;;;;;;;4.30;3.70;;;;;;;43.33;22.07;100124.42;1786538;79;22348;-65
2021/07/11 08:02:42;;;;;;;5.00;4.50;;;;;;;43.33;22.38;100116.95;1796202;78;21035;-67
2021/07/11 08:05:10;;;;;;;4.92;3.98;;;;;;;43.55;21.62;100120.25;1762661;80;20914;-62
2021/07/11 08:07:36;;;;;;;3.87;3.47;;;;;;;43.69;21.08;100117.33;1741821;82;21112;-67
2021/07/11 08:10:06;;;;;;;4.30;3.50;;;;;;;43.88;20.09;100113.78;1757216;80;21086;-66
2021/07/11 08:12:32;;;;;;;5.28;3.65;;;;;;;44.19;19.72;100116.64;1786268;79;21198;-68
2021/07/11 08:14:58;;;;;;;7.75;4.33;;;;;;;44.62;20.00;100108.31;1783940;79;21405;-68
2021/07/11 08:17:25;;;;;;;4.20;3.80;;;;;;;45.00;19.61;100107.44;1780152;79;21548;-67
2021/07/11 08:19:51;;;;;;;4.12;3.72;;;;;;;44.89;19.43;100108.23;1795166;79;21045;-69
2021/07/11 08:22:19;;;;;;;4.33;3.70;;;;;;;44.43;19.40;100112.55;1787574;79;20955;-65
2021/07/11 08:24:53;;;;;;;5.40;4.10;;;;;;;44.02;20.29;100110.03;1786533;79;21143;-68
2021/07/11 08:27:20;;;;;;;6.50;4.65;;;;;;;44.22;21.23;100112.89;1784459;79;21032;-66
2021/07/11 08:29:50;;;;;;;3.92;3.52;;;;;;;44.29;18.46;100108.09;1786585;79;20998;-67
2021/07/11 08:32:15;;;;;;;4.60;3.80;;;;;;;43.73;17.64;100106.90;1790589;79;21066;-64
2021/07/11 08:34:42;;;;;;;4.47;3.77;;;;;;;43.11;18.77;100107.41;1788255;79;21077;-68
2021/07/11 08:37:16;;;;;;;5.22;4.00;;;;;;;43.00;19.00;100108.86;1788185;79;21825;-66
2021/07/11 08:39:42;;;;;;;5.95;4.00;;;;;;;43.16;20.10;100108.36;1783551;79;21536;-65
2021/07/11 08:42:09;;;;;;;4.10;3.70;;;;;;;43.34;19.96;100099.90;1786719;79;21161;-62
2021/07/11 08:44:37;;;;;;;4.37;3.65;;;;;;;43.19;20.66;100101.45;1781391;79;21096;-68
2021/07/11 08:47:04;;;;;;;5.08;3.87;;;;;;;43.52;20.45;100110.69;1786557;79;21002;-67
2021/07/11 08:49:31;;;;;;;4.37;3.33;;;;;;;43.07;19.54;100103.34;1781942;79;22284;-65
2021/07/11 08:51:59;;;;;;;4.20;3.30;;;;;;;42.59;19.55;100095.16;1787753;79;20933;-67
2021/07/11 08:54:26;;;;;;;3.92;3.37;;;;;;;42.31;19.36;100096.94;1786870;79;21034;-62
2021/07/11 08:56:59;;;;;;;4.22;3.72;;;;;;;42.25;20.43;100101.30;1760158;80;21140;-67
2021/07/11 08:59:27;;;;;;;4.10;3.70;;;;;;;42.44;19.68;100105.47;1784743;79;21022;-63
2021/07/11 09:01:56;;;;;;;4.47;3.92;;;;;;;41.93;20.19;100102.84;1787622;79;21052;-64
2021/07/11 09:04:22;;;;;;;6.42;3.90;;;;;;;42.01;20.20;100097.51;1787097;79;21099;-61
2021/07/11 09:06:56;;;;;;;5.10;4.10;;;;;;;41.59;20.71;100093.80;1786938;79;21165;-65
2021/07/11 09:09:30;;;;;;;8.20;4.00;;;;;;;42.05;21.17;100092.78;1788779;79;20959;-64
2021/07/11 09:12:06;;;;;;;4.35;3.95;;;;;;;42.31;20.97;100085.20;1755840;80;21005;-66
2021/07/11 09:14:35;;;;;;;4.90;3.62;;;;;;;42.60;20.42;100093.38;1786701;78;21945;-67
2021/07/11 09:17:05;;;;;;;6.42;4.28;;;;;;;42.70;20.55;100091.16;1791455;79;21026;-63
2021/07/11 09:19:35;;;;;;;6.83;4.47;;;;;;;42.58;20.97;100086.14;1796985;79;22392;-68
2021/07/11 09:22:23;;;;;;;4.55;3.60;;;;;;;42.43;20.84;100090.98;1790454;79;21007;-63
2021/07/11 09:24:56;;;;;;;4.92;4.00;;;;;;;42.16;21.21;100086.64;1773416;80;20940;-63
2021/07/11 09:27:29;;;;;;;4.45;3.72;;;;;;;41.93;21.06;100082.31;1790263;78;22361;-65
2021/07/11 09:30:06;;;;;;;4.58;3.98;;;;;;;41.40;20.55;100083.30;1791496;79;21657;-65
2021/07/11 09:32:35;;;;;;;5.25;4.60;;;;;;;40.54;21.27;100088.33;1770766;80;21526;-60
2021/07/11 09:35:13;;;;;;;4.80;4.10;;;;;;;40.02;22.34;100083.76;1793780;79;21002;-65
2021/07/11 09:37:42;;;;;;;4.17;3.77;;;;;;;40.12;23.61;100082.23;1764607;80;21146;-61
2021/07/11 09:40:10;;;;;;;5.65;4.47;;;;;;;40.27;22.97;100082.47;1782733;79;21112;-65
2021/07/11 09:42:39;;;;;;;6.97;4.62;;;;;;;40.35;22.63;100079.94;1788474;79;20983;-62
2021/07/11 09:45:21;;;;;;;5.22;4.37;;;;;;;40.60;22.10;100076.44;1784538;79;22277;-65
2021/07/11 09:47:48;;;;;;;;;;;;;;;40.34;22.73;100073.48;1798663;79;21030;-67
2021/07/11 09:50:22;;;;;;;5.77;4.93;;;;;;;40.32;23.01;100069.78;1798358;79;20428;-62
2021/07/11 09:52:56;;;;;;;4.30;3.90;;;;;;;40.32;22.93;100075.24;1800668;79;21144;-71
2021/07/11 09:55:29;;;;;;;4.58;4.17;;;;;;;40.80;22.51;100069.40;1793558;79;21510;-73
2021/07/11 09:58:01;;;;;;;5.00;4.33;;;;;;;41.09;22.49;100072.08;1772609;80;20928;-70
2021/07/11 10:00:33;;;;;;;5.37;4.15;;;;;;;41.11;21.89;100067.02;1800489;79;21010;-65
2021/07/11 10:03:12;;;;;;;4.50;4.10;;;;;;;41.61;21.02;100066.83;1773764;80;21565;-66
2021/07/11 10:05:43;;;;;;;4.35;3.95;;;;;;;41.80;20.41;100066.33;1790430;78;21123;-61
2021/07/11 10:08:10;;;;;;;4.75;4.25;;;;;;;41.84;20.85;100053.24;1771708;80;21064;-63
2021/07/11 10:10:39;;;;;;;5.90;3.83;;;;;;;41.70;20.62;100056.21;1790932;79;21121;-64
2021/07/11 10:13:07;;;;;;;5.25;4.30;;;;;;;41.87;20.25;100055.19;1788352;79;21169;-65
2021/07/11 10:15:38;;;;;;;6.50;4.25;;;;;;;42.04;19.92;100047.42;1789139;79;21102;-64
2021/07/11 10:18:13;;;;;;;6.17;4.25;;;;;;;41.83;20.17;100049.73;1788660;79;21144;-66
2021/07/11 10:20:48;;;;;;;4.72;4.22;;;;;;;41.83;20.72;100051.69;1791618;79;21023;-67
2021/07/11 10:23:33;;;;;;;7.17;3.83;;;;;;;41.94;19.76;100046.89;1790043;79;21506;-68
2021/07/11 10:26:12;;;;;;;4.83;3.90;;;;;;;41.95;20.64;100042.41;1781734;79;21055;-68
2021/07/11 10:28:41;;;;;;;4.62;3.70;;;;;;;42.13;19.73;100042.84;1791867;79;21068;-68
2021/07/11 10:31:21;;;;;;;4.72;4.22;;;;;;;42.55;20.25;100045.09;1788452;79;21145;-65
2021/07/11 10:33:48;;;;;;;4.62;3.92;;;;;;;42.80;20.39;100042.88;1783654;79;20935;-61
2021/07/11 10:36:15;;;;;;;4.20;3.80;;;;;;;42.63;20.84;100045.98;1792226;79;20972;-70
2021/07/11 10:38:54;;;;;;;5.90;4.47;;;;;;;42.94;19.30;100040.59;1794360;79;20932;-71
2021/07/11 10:41:26;;;;;;;5.85;4.30;;;;;;;42.97;20.54;100046.03;1788153;79;21101;-67
2021/07/11 10:44:09;;;;;;;4.83;4.42;;;;;;;43.17;19.96;100037.98;1787677;79;21067;-61
2021/07/11 10:46:47;;;;;;;5.10;3.83;;;;;;;43.08;19.23;100039.09;1786847;79;21012;-62
2021/07/11 10:49:33;;;;;;;5.45;3.77;;;;;;;42.64;19.69;100040.67;1790103;79;21505;-63
2021/07/11 10:52:08;;;;;;;4.83;4.05;;;;;;;42.67;21.01;100044.00;1791827;79;21082;-62
2021/07/11 10:54:53;;;;;;;4.83;3.60;;;;;;;42.62;20.08;100039.52;1794277;79;21030;-71
2021/07/11 10:57:34;;;;;;;6.40;3.42;;;;;;;42.96;20.18;100035.45;1790800;79;21957;-71
2021/07/11 11:00:13;;;;;;;4.50;3.30;;;;;;;43.40;19.85;100035.92;1788842;79;21118;-74
2021/07/11 11:02:41;;;;;;;4.42;3.47;;;;;;;43.40;19.46;100039.27;1788631;79;21118;-71
2021/07/11 11:05:16;;;;;;;4.42;3.85;;;;;;;42.89;19.94;100036.94;1785292;78;20992;-73
2021/07/11 11:07:49;;;;;;;3.87;3.47;;;;;;;42.43;20.14;100038.93;1790277;79;20976;-69
2021/07/11 11:10:28;;;;;;;3.87;3.42;;;;;;;42.11;20.03;100032.31;1790941;79;21135;-61
2021/07/11 11:13:22;;;;;;;4.65;3.47;;;;;;;41.93;20.07;100035.77;1796339;79;21450;-72
2021/07/11 11:15:57;;;;;;;4.83;4.30;;;;;;;42.00;20.04;100031.02;1786059;79;21076;-71
2021/07/11 11:18:38;;;;;;;4.80;3.95;;;;;;;42.21;21.27;100033.42;1782553;79;21122;-69
2021/07/11 11:21:14;;;;;;;4.00;3.70;;;;;;;42.56;20.52;100038.41;1787562;78;21062;-72
2021/07/11 11:23:49;;;;;;;4.97;3.87;;;;;;;42.43;21.52;100035.38;1785175;79;22194;-68
2021/07/11 11:26:26;;;;;;;6.17;4.35;;;;;;;42.65;20.13;100038.11;1787313;79;20971;-61
2021/07/11 11:28:55;;;;;;;4.17;3.55;;;;;;;42.13;21.58;100033.26;1785778;79;20933;-70
2021/07/11 11:31:29;;;;;;;5.28;3.55;;;;;;;42.04;21.54;100032.36;1786968;79;20983;-69
2021/07/11 11:34:02;;;;;;;5.10;3.70;;;;;;;41.73;20.53;100029.41;1795843;79;20927;-67